createdAt,value
2023-04-25T00:02:22.845Z,100.00
2023-04-25T00:05:03.614Z,100.00
2023-04-25T00:07:43.168Z,100.00
2023-04-25T00:10:16.914Z,100.00
2023-04-25T00:16:21.430Z,100.00
2023-04-25T00:18:55.571Z,100.00
2023-04-25T00:21:33.375Z,100.00
2023-04-25T00:24:06.579Z,100.00
2023-04-25T00:26:40.105Z,100.00
2023-04-25T00:29:13.553Z,100.00
2023-04-25T00:31:47.089Z,100.00
2023-04-25T00:34:20.211Z,100.00
2023-04-25T00:36:54.006Z,100.00
2023-04-25T00:39:27.904Z,100.00
2023-04-25T00:42:01.005Z,100.00
2023-04-25T00:44:38.583Z,100.00
2023-04-25T00:47:14.373Z,100.00
2023-04-25T00:49:47.153Z,100.00
2023-04-25T00:52:23.988Z,100.00
2023-04-25T00:54:57.410Z,100.00
2023-04-25T00:57:30.932Z,100.00
2023-04-25T01:00:07.949Z,100.00
2023-04-25T01:02:42.171Z,100.00
2023-04-25T01:05:15.341Z,100.00
2023-04-25T01:07:49.258Z,100.00
2023-04-25T01:10:55.802Z,100.00
2023-04-25T01:13:28.575Z,100.00
2023-04-25T01:16:27.436Z,100.00
2023-04-25T01:19:01.485Z,100.00
2023-04-25T01:21:34.770Z,100.00
2023-04-25T01:24:09.154Z,100.00
2023-04-25T01:27:02.488Z,100.00
2023-04-25T01:29:36.570Z,100.00
2023-04-25T01:32:11.347Z,100.00
2023-04-25T01:34:44.576Z,100.00
2023-04-25T01:37:31.969Z,100.00
2023-04-25T01:40:07.263Z,100.00
2023-04-25T01:42:43.920Z,100.00
2023-04-25T01:45:21.312Z,100.00
2023-04-25T01:47:54.754Z,100.00
2023-04-25T01:50:31.169Z,100.00
2023-04-25T01:53:17.242Z,100.00
2023-04-25T01:55:53.363Z,100.00
2023-04-25T01:59:03.990Z,100.00
2023-04-25T02:01:36.903Z,100.00
2023-04-25T02:04:15.922Z,100.00
2023-04-25T02:06:52.655Z,100.00
2023-04-25T02:09:26.183Z,100.00
2023-04-25T02:12:00.110Z,100.00
2023-04-25T02:14:32.142Z,100.00
2023-04-25T02:17:07.759Z,100.00
2023-04-25T02:19:41.315Z,100.00
2023-04-25T02:22:14.282Z,100.00
2023-04-25T02:24:48.829Z,100.00
2023-04-25T02:27:22.187Z,100.00
2023-04-25T02:29:56.189Z,100.00
2023-04-25T02:32:29.551Z,100.00
2023-04-25T02:35:06.024Z,100.00
2023-04-25T02:37:40.866Z,100.00
2023-04-25T02:40:15.647Z,100.00
2023-04-25T02:42:49.146Z,100.00
2023-04-25T02:45:22.765Z,100.00
2023-04-25T02:47:56.055Z,100.00
2023-04-25T02:50:29.312Z,100.00
2023-04-25T02:53:02.531Z,100.00
2023-04-25T02:55:36.337Z,100.00
2023-04-25T02:58:10.255Z,100.00
2023-04-25T03:00:43.926Z,100.00
2023-04-25T03:03:19.251Z,100.00
2023-04-25T03:05:54.347Z,100.00
2023-04-25T03:08:34.414Z,100.00
2023-04-25T03:11:07.679Z,100.00
2023-04-25T03:13:40.654Z,100.00
2023-04-25T03:16:13.805Z,100.00
2023-04-25T03:18:46.807Z,100.00
2023-04-25T03:21:19.708Z,100.00
2023-04-25T03:23:53.653Z,100.00
2023-04-25T03:26:26.755Z,100.00
2023-04-25T03:29:00.735Z,100.00
2023-04-25T03:31:34.187Z,100.00
2023-04-25T03:34:06.173Z,100.00
2023-04-25T03:36:41.638Z,100.00
2023-04-25T03:39:18.591Z,100.00
2023-04-25T03:41:51.410Z,100.00
2023-04-25T03:44:26.332Z,100.00
2023-04-25T03:47:00.488Z,100.00
2023-04-25T03:49:34.657Z,100.00
2023-04-25T03:52:08.881Z,100.00
2023-04-25T03:54:44.959Z,100.00
2023-04-25T03:57:18.642Z,100.00
2023-04-25T04:00:04.141Z,100.00
2023-04-25T04:02:38.733Z,100.00
2023-04-25T04:05:11.951Z,100.00
2023-04-25T04:07:45.943Z,100.00
2023-04-25T04:10:18.551Z,100.00
2023-04-25T04:12:51.605Z,100.00
2023-04-25T04:15:26.323Z,100.00
2023-04-25T04:18:04.545Z,100.00
2023-04-25T04:20:38.245Z,100.00
2023-04-25T04:23:11.796Z,100.00
2023-04-25T04:25:45.074Z,100.00
2023-04-25T04:28:21.291Z,100.00
2023-04-25T04:30:54.259Z,100.00
2023-04-25T04:33:27.706Z,100.00
2023-04-25T04:36:00.728Z,100.00
2023-04-25T04:38:40.070Z,100.00
2023-04-25T04:41:14.170Z,100.00
2023-04-25T04:43:48.198Z,100.00
2023-04-25T04:46:21.986Z,100.00
2023-04-25T04:49:01.763Z,100.00
2023-04-25T04:51:35.451Z,100.00
2023-04-25T04:54:22.846Z,100.00
2023-04-25T04:56:56.452Z,100.00
2023-04-25T04:59:28.047Z,100.00
2023-04-25T05:02:01.080Z,100.00
2023-04-25T05:04:34.108Z,100.00
2023-04-25T05:07:10.519Z,100.00
2023-04-25T05:09:43.799Z,100.00
2023-04-25T05:12:17.720Z,100.00
2023-04-25T05:14:50.500Z,100.00
2023-04-25T05:17:24.750Z,100.00
2023-04-25T05:20:04.229Z,100.00
2023-04-25T05:22:39.376Z,100.00
2023-04-25T05:25:12.682Z,100.00
2023-04-25T05:27:45.355Z,100.00
2023-04-25T05:30:22.598Z,100.00
2023-04-25T05:32:56.152Z,100.00
2023-04-25T05:35:35.261Z,100.00
2023-04-25T05:38:08.301Z,100.00
2023-04-25T05:40:41.328Z,100.00
2023-04-25T05:43:16.727Z,100.00
2023-04-25T05:45:52.757Z,100.00
2023-04-25T05:48:26.319Z,100.00
2023-04-25T05:50:59.745Z,100.00
2023-04-25T05:53:32.862Z,100.00
2023-04-25T05:56:06.087Z,100.00
2023-04-25T05:58:42.764Z,100.00
2023-04-25T06:01:16.811Z,100.00
2023-04-25T06:04:02.032Z,100.00
2023-04-25T06:06:36.041Z,100.00
2023-04-25T06:09:08.902Z,100.00
2023-04-25T06:11:42.516Z,100.00
2023-04-25T06:14:19.018Z,100.00
2023-04-25T06:16:54.243Z,100.00
2023-04-25T06:19:27.489Z,100.00
2023-04-25T06:22:00.572Z,100.00
2023-04-25T06:24:34.085Z,100.00
2023-04-25T06:27:07.564Z,100.00
2023-04-25T06:29:40.954Z,100.00
2023-04-25T06:32:13.923Z,100.00
2023-04-25T06:34:47.885Z,100.00
2023-04-25T06:37:21.029Z,100.00
2023-04-25T06:39:55.285Z,100.00
2023-04-25T06:42:30.955Z,100.00
2023-04-25T06:45:04.940Z,100.00
2023-04-25T06:47:39.113Z,100.00
2023-04-25T06:50:12.731Z,100.00
2023-04-25T06:52:46.163Z,100.00
2023-04-25T06:55:19.424Z,100.00
2023-04-25T06:57:52.691Z,100.00
2023-04-25T07:00:26.027Z,100.00
2023-04-25T07:02:59.725Z,100.00
2023-04-25T07:05:33.548Z,100.00
2023-04-25T07:08:07.772Z,100.00
2023-04-25T07:10:41.913Z,100.00
2023-04-25T07:13:15.482Z,100.00
2023-04-25T07:15:49.910Z,100.00
2023-04-25T07:18:23.291Z,100.00
2023-04-25T07:20:56.666Z,100.00
2023-04-25T07:23:30.042Z,100.00
2023-04-25T07:26:03.232Z,100.00
2023-04-25T07:28:39.864Z,100.00
2023-04-25T07:31:12.300Z,100.00
2023-04-25T07:33:48.232Z,100.00
2023-04-25T07:36:24.657Z,100.00
2023-04-25T07:39:17.921Z,100.00
2023-04-25T07:41:52.486Z,100.00
2023-04-25T07:44:27.550Z,100.00
2023-04-25T07:47:01.429Z,100.00
2023-04-25T07:49:47.794Z,100.00
2023-04-25T07:52:24.147Z,100.00
2023-04-25T07:54:57.105Z,100.00
2023-04-25T07:57:34.421Z,100.00
2023-04-25T08:00:13.689Z,99.50
2023-04-25T08:02:47.770Z,99.82
2023-04-25T08:05:22.745Z,100.00
2023-04-25T08:07:58.188Z,99.44
2023-04-25T08:10:31.623Z,100.00
2023-04-25T08:13:04.905Z,99.58
2023-04-25T08:15:38.073Z,99.95
2023-04-25T08:18:11.002Z,100.00
2023-04-25T08:20:43.854Z,100.00
2023-04-25T08:23:17.281Z,99.73
2023-04-25T08:25:50.704Z,99.62
2023-04-25T08:28:23.834Z,99.84
2023-04-25T08:30:56.525Z,99.94
2023-04-25T08:33:30.720Z,95.51
2023-04-25T08:36:04.411Z,93.37
2023-04-25T08:38:39.048Z,97.69
2023-04-25T08:41:14.594Z,100.00
2023-04-25T08:44:11.959Z,100.00
2023-04-25T08:46:51.947Z,99.49
2023-04-25T08:49:28.561Z,99.22
2023-04-25T08:52:07.893Z,97.53
2023-04-25T08:54:46.611Z,97.68
2023-04-25T08:57:22.225Z,99.08
2023-04-25T09:00:14.959Z,99.93
2023-04-25T09:02:50.313Z,100.00
2023-04-25T09:05:24.996Z,100.00
2023-04-25T09:07:58.786Z,100.00
2023-04-25T09:13:17.613Z,100.00
2023-04-25T09:15:59.042Z,99.71
2023-04-25T09:18:34.180Z,100.00
2023-04-25T09:21:14.681Z,100.00
2023-04-25T09:23:53.424Z,100.00
2023-04-25T09:26:31.184Z,100.00
2023-04-25T09:29:11.564Z,100.00
2023-04-25T09:31:44.414Z,100.00
2023-04-25T09:34:18.913Z,100.00
2023-04-25T09:36:52.822Z,99.98
2023-04-25T09:39:27.915Z,100.00
2023-04-25T09:42:02.291Z,100.00
2023-04-25T09:44:35.396Z,99.47
2023-04-25T09:47:13.529Z,99.66
2023-04-25T09:49:46.848Z,100.00
2023-04-25T09:52:23.874Z,98.43
2023-04-25T09:54:57.847Z,95.53
2023-04-25T09:57:30.773Z,98.82
2023-04-25T10:00:12.999Z,97.89
2023-04-25T10:02:50.881Z,96.09
2023-04-25T10:05:27.214Z,98.00
2023-04-25T10:08:05.135Z,99.93
2023-04-25T10:10:42.773Z,100.00
2023-04-25T10:13:17.062Z,99.03
2023-04-25T10:16:00.432Z,100.00
2023-04-25T10:18:37.790Z,99.85
2023-04-25T10:21:13.013Z,100.00
2023-04-25T10:23:51.525Z,100.00
2023-04-25T10:26:26.427Z,100.00
2023-04-25T10:29:01.503Z,100.00
2023-04-25T10:31:35.088Z,99.93
2023-04-25T10:34:08.475Z,100.00
2023-04-25T10:36:41.883Z,100.00
2023-04-25T10:39:15.584Z,97.71
2023-04-25T10:42:04.104Z,95.62
2023-04-25T10:44:40.999Z,96.49
2023-04-25T10:47:14.528Z,96.74
2023-04-25T10:49:55.418Z,97.50
2023-04-25T10:52:30.271Z,98.59
2023-04-25T10:55:06.117Z,98.49
2023-04-25T10:57:46.785Z,98.11
2023-04-25T11:00:26.015Z,99.90
2023-04-25T11:03:04.809Z,98.86
2023-04-25T11:05:47.619Z,96.40
2023-04-25T11:08:52.153Z,95.25
2023-04-25T11:11:28.410Z,97.32
2023-04-25T11:14:01.692Z,96.16
2023-04-25T11:16:34.917Z,95.00
2023-04-25T11:19:07.551Z,96.07
2023-04-25T11:21:39.912Z,91.32
2023-04-25T11:24:13.782Z,92.33
2023-04-25T11:26:50.299Z,86.79
2023-04-25T11:29:38.466Z,90.43
2023-04-25T11:32:11.865Z,90.81
2023-04-25T11:34:47.783Z,90.34
2023-04-25T11:37:21.331Z,94.15
2023-04-25T11:40:15.948Z,95.24
2023-04-25T11:42:49.816Z,95.26
2023-04-25T11:45:25.854Z,94.86
2023-04-25T11:47:58.916Z,96.60
2023-04-25T11:50:32.165Z,97.51
2023-04-25T11:53:04.887Z,96.55
2023-04-25T11:55:38.790Z,95.03
2023-04-25T11:58:15.454Z,94.94
2023-04-25T12:00:51.195Z,96.68
2023-04-25T12:03:30.867Z,96.41
2023-04-25T12:06:09.231Z,95.61
2023-04-25T12:09:02.752Z,95.94
2023-04-25T12:12:20.501Z,96.04
2023-04-25T12:14:54.063Z,96.98
2023-04-25T12:17:27.252Z,96.97
2023-04-25T12:20:12.546Z,97.53
2023-04-25T12:22:58.981Z,96.14
2023-04-25T12:25:57.572Z,98.23
2023-04-25T12:28:43.865Z,98.40
2023-04-25T12:31:18.121Z,97.47
2023-04-25T12:33:53.815Z,97.06
2023-04-25T12:36:27.848Z,96.45
2023-04-25T12:39:05.923Z,98.86
2023-04-25T12:41:39.663Z,98.41
2023-04-25T12:44:13.022Z,97.13
2023-04-25T12:46:49.411Z,97.25
2023-04-25T12:49:22.935Z,98.59
2023-04-25T12:51:55.891Z,98.74
2023-04-25T12:54:29.908Z,98.44
2023-04-25T12:57:04.645Z,97.13
2023-04-25T12:59:43.041Z,97.74
2023-04-25T13:02:20.715Z,96.82
2023-04-25T13:04:54.412Z,93.25
2023-04-25T13:07:27.818Z,94.49
2023-04-25T13:10:01.700Z,90.79
2023-04-25T13:12:35.686Z,93.95
2023-04-25T13:15:19.922Z,95.52
2023-04-25T13:17:53.409Z,91.13
2023-04-25T13:20:26.760Z,91.75
2023-04-25T13:23:01.033Z,91.39
2023-04-25T13:25:36.149Z,89.50
2023-04-25T13:28:09.416Z,90.35
2023-04-25T13:30:45.499Z,87.75
2023-04-25T13:33:19.271Z,85.88
2023-04-25T13:36:01.036Z,88.04
2023-04-25T13:38:37.817Z,89.05
2023-04-25T13:41:16.252Z,85.10
2023-04-25T13:43:49.992Z,89.41
2023-04-25T13:49:09.928Z,88.95
2023-04-25T13:51:45.633Z,86.37
2023-04-25T13:54:22.626Z,85.14
2023-04-25T13:57:00.662Z,83.60
2023-04-25T13:59:34.549Z,82.65
2023-04-25T14:02:08.028Z,85.24
2023-04-25T14:04:42.346Z,85.60
2023-04-25T14:07:20.977Z,84.73
2023-04-25T14:09:56.324Z,85.95
2023-04-25T14:12:29.017Z,86.87
2023-04-25T14:15:02.739Z,87.41
2023-04-25T14:17:35.787Z,88.18
2023-04-25T14:20:10.604Z,86.85
2023-04-25T14:22:47.184Z,88.17
2023-04-25T14:25:24.003Z,90.00
2023-04-25T14:27:56.829Z,89.29
2023-04-25T14:30:29.905Z,89.64
2023-04-25T14:33:03.746Z,89.10
2023-04-25T14:35:40.185Z,88.06
2023-04-25T14:38:24.738Z,88.90
2023-04-25T14:40:57.595Z,89.28
2023-04-25T14:43:30.957Z,86.84
2023-04-25T14:46:04.275Z,87.67
2023-04-25T14:48:37.845Z,88.11
2023-04-25T14:51:11.023Z,86.62
2023-04-25T14:53:43.940Z,87.92
2023-04-25T14:56:17.134Z,87.03
2023-04-25T14:58:50.790Z,85.43
2023-04-25T15:01:25.712Z,85.92
2023-04-25T15:04:00.786Z,84.29
2023-04-25T15:06:34.001Z,85.72
2023-04-25T15:09:08.688Z,85.11
2023-04-25T15:11:44.143Z,83.81
2023-04-25T15:14:20.048Z,84.44
2023-04-25T15:16:53.184Z,84.08
2023-04-25T15:19:30.002Z,83.80
2023-04-25T15:22:03.649Z,84.80
2023-04-25T15:24:40.489Z,84.59
2023-04-25T15:27:15.579Z,84.77
2023-04-25T15:29:48.182Z,84.56
2023-04-25T15:32:21.854Z,83.99
2023-04-25T15:34:54.924Z,84.70
2023-04-25T15:37:28.116Z,84.73
2023-04-25T15:40:14.579Z,84.70
2023-04-25T15:42:52.113Z,84.54
2023-04-25T15:45:27.049Z,84.57
2023-04-25T15:48:00.703Z,85.00
2023-04-25T15:50:34.234Z,85.04
2023-04-25T15:53:09.178Z,85.59
2023-04-25T15:55:42.578Z,86.21
2023-04-25T15:58:15.726Z,86.65
2023-04-25T16:00:52.114Z,86.85
2023-04-25T16:03:25.318Z,84.20
2023-04-25T16:05:59.472Z,84.99
2023-04-25T16:08:36.908Z,85.97
2023-04-25T16:11:09.981Z,86.09
2023-04-25T16:13:46.412Z,86.57
2023-04-25T16:16:24.786Z,86.30
2023-04-25T16:19:02.409Z,85.95
2023-04-25T16:21:35.244Z,86.27
2023-04-25T16:24:08.867Z,86.58
2023-04-25T16:26:45.087Z,85.60
2023-04-25T16:29:18.347Z,86.67
2023-04-25T16:31:52.903Z,86.19
2023-04-25T16:34:30.678Z,85.27
2023-04-25T16:37:05.674Z,83.89
2023-04-25T16:39:39.281Z,83.65
2023-04-25T16:42:12.356Z,84.23
2023-04-25T16:44:53.779Z,84.54
2023-04-25T16:47:30.763Z,83.04
2023-04-25T16:50:04.168Z,83.39
2023-04-25T16:52:37.369Z,82.77
2023-04-25T16:55:10.451Z,81.30
2023-04-25T16:57:49.586Z,81.21
2023-04-25T17:00:22.606Z,81.84
2023-04-25T17:02:55.509Z,82.41
2023-04-25T17:05:34.453Z,81.51
2023-04-25T17:08:10.096Z,81.13
2023-04-25T17:10:48.786Z,81.50
2023-04-25T17:13:31.155Z,80.77
2023-04-25T17:16:06.158Z,81.56
2023-04-25T17:18:41.824Z,79.96
2023-04-25T17:21:18.952Z,80.35
2023-04-25T17:23:55.254Z,79.71
2023-04-25T17:26:27.954Z,77.90
2023-04-25T17:29:03.946Z,75.89
2023-04-25T17:31:37.750Z,77.96
2023-04-25T17:34:12.643Z,77.80
2023-04-25T17:36:49.570Z,75.51
2023-04-25T17:39:22.854Z,77.30
2023-04-25T17:41:55.657Z,76.63
2023-04-25T17:44:28.676Z,74.47
2023-04-25T17:47:06.604Z,72.82
2023-04-25T17:49:41.774Z,73.43
2023-04-25T17:52:15.311Z,74.37
2023-04-25T17:54:49.609Z,73.78
2023-04-25T17:57:23.433Z,74.92
2023-04-25T17:59:58.492Z,75.12
2023-04-25T18:02:32.506Z,73.79
2023-04-25T18:05:10.121Z,75.99
2023-04-25T18:07:43.737Z,74.41
2023-04-25T18:10:15.659Z,74.96
2023-04-25T18:12:47.509Z,76.35
2023-04-25T18:15:23.116Z,77.03
2023-04-25T18:17:58.332Z,75.40
2023-04-25T18:20:32.277Z,76.45
2023-04-25T18:23:06.678Z,75.23
2023-04-25T18:25:40.563Z,73.94
2023-04-25T18:28:15.767Z,73.14
2023-04-25T18:30:50.508Z,74.02
2023-04-25T18:33:24.464Z,74.82
2023-04-25T18:36:00.477Z,76.18
2023-04-25T18:38:36.049Z,74.17
2023-04-25T18:41:34.404Z,73.22
2023-04-25T18:44:09.651Z,74.38
2023-04-25T18:46:47.293Z,73.20
2023-04-25T18:49:22.979Z,73.42
2023-04-25T18:51:59.061Z,70.81
2023-04-25T18:54:33.645Z,72.28
2023-04-25T18:57:10.794Z,72.90
2023-04-25T18:59:46.344Z,73.16
2023-04-25T19:02:21.628Z,73.21
2023-04-25T19:04:55.141Z,74.33
2023-04-25T19:07:29.889Z,74.94
2023-04-25T19:10:05.676Z,74.67
2023-04-25T19:12:47.478Z,75.49
2023-04-25T19:15:21.284Z,75.44
2023-04-25T19:17:55.730Z,74.77
2023-04-25T19:20:29.093Z,75.16
2023-04-25T19:23:05.822Z,75.24
2023-04-25T19:25:39.688Z,76.19
2023-04-25T19:28:16.032Z,76.02
2023-04-25T19:31:03.119Z,76.21
2023-04-25T19:33:37.533Z,76.68
2023-04-25T19:36:14.684Z,75.44
2023-04-25T19:38:47.587Z,75.56
2023-04-25T19:41:20.844Z,75.73
2023-04-25T19:43:56.438Z,76.07
2023-04-25T19:46:30.065Z,76.04
2023-04-25T19:49:07.408Z,76.43
2023-04-25T19:51:40.938Z,76.43
2023-04-25T19:54:13.822Z,76.61
2023-04-25T19:56:47.357Z,75.98
2023-04-25T19:59:25.462Z,76.00
2023-04-25T20:02:02.328Z,76.87
2023-04-25T20:04:36.114Z,76.89
2023-04-25T20:07:09.930Z,76.48
2023-04-25T20:09:44.347Z,76.73
2023-04-25T20:12:19.283Z,76.76
2023-04-25T20:14:53.413Z,76.64
2023-04-25T20:17:27.682Z,77.05
2023-04-25T20:20:04.737Z,76.99
2023-04-25T20:22:41.552Z,77.33
2023-04-25T20:25:15.460Z,77.07
2023-04-25T20:27:53.507Z,77.40
2023-04-25T20:30:28.924Z,77.68
2023-04-25T20:33:05.768Z,77.75
2023-04-25T20:35:43.005Z,77.83
2023-04-25T20:38:17.059Z,77.94
2023-04-25T20:40:52.417Z,77.99
2023-04-25T20:43:28.467Z,78.06
2023-04-25T20:46:05.024Z,78.40
2023-04-25T20:48:38.681Z,78.83
2023-04-25T20:51:14.880Z,78.93
2023-04-25T20:53:48.667Z,79.15
2023-04-25T20:56:22.517Z,79.48
2023-04-25T20:58:57.872Z,79.39
2023-04-25T21:01:34.643Z,79.86
2023-04-25T21:04:11.683Z,79.86
2023-04-25T21:06:45.645Z,79.89
2023-04-25T21:09:20.001Z,79.63
2023-04-25T21:11:53.742Z,79.80
2023-04-25T21:14:27.127Z,79.71
2023-04-25T21:17:00.310Z,79.90
2023-04-25T21:19:34.455Z,80.11
2023-04-25T21:22:10.399Z,79.95
2023-04-25T21:24:44.596Z,80.02
2023-04-25T21:27:21.507Z,80.21
2023-04-25T21:29:54.832Z,80.07
2023-04-25T21:32:31.350Z,80.32
2023-04-25T21:35:04.488Z,80.47
2023-04-25T21:37:39.430Z,80.57
2023-04-25T21:40:13.398Z,80.65
2023-04-25T21:42:57.388Z,80.68
2023-04-25T21:45:32.088Z,81.02
2023-04-25T21:48:06.019Z,81.31
2023-04-25T21:50:39.036Z,81.34
2023-04-25T21:53:12.485Z,81.42
2023-04-25T21:55:45.949Z,81.57
2023-04-25T21:58:24.868Z,82.00
2023-04-25T22:00:57.725Z,82.09
2023-04-25T22:03:36.715Z,81.81
2023-04-25T22:06:10.404Z,82.19
2023-04-25T22:08:47.593Z,82.24
2023-04-25T22:11:27.154Z,82.30
2023-04-25T22:14:02.571Z,82.63
2023-04-25T22:16:37.947Z,83.06
2023-04-25T22:19:12.959Z,83.35
2023-04-25T22:21:47.019Z,83.55
2023-04-25T22:24:23.398Z,83.39
2023-04-25T22:26:58.414Z,84.10
2023-04-25T22:29:33.461Z,84.05
2023-04-25T22:32:08.072Z,84.09
2023-04-25T22:34:42.451Z,84.26
2023-04-25T22:37:15.136Z,84.71
2023-04-25T22:39:48.346Z,84.81
2023-04-25T22:42:21.610Z,84.57
2023-04-25T22:44:55.779Z,84.81
2023-04-25T22:47:30.003Z,84.84
2023-04-25T22:50:07.387Z,85.01
2023-04-25T22:52:41.750Z,85.02
2023-04-25T22:55:14.952Z,85.41
2023-04-25T22:57:48.986Z,85.45
2023-04-25T23:00:23.623Z,85.77
2023-04-25T23:02:56.781Z,85.70
2023-04-25T23:05:31.677Z,86.15
2023-04-25T23:08:10.123Z,85.82
2023-04-25T23:10:43.850Z,85.72
2023-04-25T23:13:17.763Z,85.99
2023-04-25T23:15:51.418Z,86.27
2023-04-25T23:18:24.289Z,86.03
2023-04-25T23:21:00.610Z,86.25
2023-04-25T23:23:36.974Z,86.76
2023-04-25T23:26:14.132Z,86.73
2023-04-25T23:28:48.099Z,86.82
2023-04-25T23:31:21.793Z,86.96
2023-04-25T23:33:55.552Z,86.94
2023-04-25T23:36:29.227Z,87.26
2023-04-25T23:39:03.463Z,87.37
2023-04-25T23:41:36.754Z,88.14
2023-04-25T23:44:15.316Z,88.25
2023-04-25T23:46:51.795Z,88.32
2023-04-25T23:49:25.615Z,88.46
2023-04-25T23:51:58.816Z,89.12
2023-04-25T23:54:32.965Z,89.15
2023-04-25T23:57:06.272Z,89.13
2023-04-25T23:59:39.427Z,89.14
